createdAt,value
2018-03-25T00:00:35.431Z,4.00
2018-03-25T00:01:35.447Z,4.00
2018-03-25T00:02:35.467Z,4.00
2018-03-25T00:03:35.481Z,4.00
2018-03-25T00:04:35.498Z,4.00
2018-03-25T00:05:35.516Z,4.00
2018-03-25T00:06:35.531Z,4.00
2018-03-25T00:07:35.547Z,4.00
2018-03-25T00:08:35.563Z,4.00
2018-03-25T00:09:35.580Z,4.00
2018-03-25T00:10:35.597Z,4.00
2018-03-25T00:11:35.634Z,4.00
2018-03-25T00:12:35.630Z,4.00
2018-03-25T00:13:35.648Z,4.00
2018-03-25T00:14:35.664Z,4.00
2018-03-25T00:15:35.680Z,4.00
2018-03-25T00:16:35.696Z,4.00
2018-03-25T00:17:35.718Z,4.00
2018-03-25T00:18:35.730Z,4.00
2018-03-25T00:19:35.745Z,4.00
2018-03-25T00:20:35.763Z,4.00
2018-03-25T00:21:35.781Z,4.00
2018-03-25T00:22:35.798Z,4.00
2018-03-25T00:23:35.812Z,4.00
2018-03-25T00:24:35.829Z,4.00
2018-03-25T00:25:35.849Z,4.00
2018-03-25T00:26:35.863Z,4.00
2018-03-25T00:27:35.879Z,4.00
2018-03-25T00:28:35.896Z,4.00
2018-03-25T00:29:35.913Z,4.00
2018-03-25T00:30:36.230Z,4.00
2018-03-25T00:31:35.947Z,4.00
2018-03-25T00:32:35.961Z,4.00
2018-03-25T00:33:35.985Z,4.00
2018-03-25T00:34:35.996Z,4.00
2018-03-25T00:35:36.012Z,4.00
2018-03-25T00:36:36.031Z,4.00
2018-03-25T00:37:36.045Z,4.00
2018-03-25T00:38:36.062Z,4.00
2018-03-25T00:39:36.078Z,4.00
2018-03-25T00:40:36.093Z,4.00
2018-03-25T00:41:36.112Z,4.00
2018-03-25T00:42:36.129Z,4.00
2018-03-25T00:43:36.146Z,4.00
2018-03-25T00:44:36.161Z,4.00
2018-03-25T00:45:36.187Z,4.00
2018-03-25T00:46:36.195Z,4.00
2018-03-25T00:47:36.210Z,4.00
2018-03-25T00:48:36.228Z,4.00
2018-03-25T00:49:36.244Z,4.00
2018-03-25T00:50:36.261Z,4.00
2018-03-25T00:51:36.276Z,4.00
2018-03-25T00:52:36.296Z,4.00
2018-03-25T00:53:36.310Z,4.00
2018-03-25T00:54:36.327Z,4.00
2018-03-25T00:55:36.343Z,4.00
2018-03-25T00:56:36.359Z,4.00
2018-03-25T00:57:36.376Z,4.00
2018-03-25T00:58:36.399Z,4.00
2018-03-25T00:59:36.408Z,4.00
2018-03-25T01:00:36.426Z,4.00
2018-03-25T01:01:36.444Z,4.00
2018-03-25T01:02:36.459Z,4.00
2018-03-25T01:03:36.475Z,4.00
2018-03-25T01:04:36.493Z,4.00
2018-03-25T01:05:36.508Z,4.00
2018-03-25T01:06:36.525Z,4.00
2018-03-25T01:07:36.590Z,4.00
2018-03-25T01:08:36.557Z,4.00
2018-03-25T01:09:36.575Z,4.00
2018-03-25T01:10:36.590Z,4.00
2018-03-25T01:11:36.609Z,4.00
2018-03-25T01:12:36.623Z,4.00
2018-03-25T01:13:36.641Z,4.00
2018-03-25T01:14:36.656Z,4.00
2018-03-25T01:15:36.677Z,4.00
2018-03-25T01:16:36.689Z,4.00
2018-03-25T01:17:36.707Z,4.00
2018-03-25T01:18:36.723Z,4.00
2018-03-25T01:19:36.739Z,4.00
2018-03-25T01:20:36.755Z,4.00
2018-03-25T01:21:36.772Z,4.00
2018-03-25T01:22:36.792Z,4.00
2018-03-25T01:23:36.803Z,4.00
2018-03-25T01:24:36.819Z,8.00
2018-03-25T01:25:36.836Z,4.00
2018-03-25T01:26:36.853Z,4.00
2018-03-25T01:27:36.875Z,4.00
2018-03-25T01:28:36.885Z,4.00
2018-03-25T01:29:36.903Z,4.00
2018-03-25T01:30:36.922Z,4.00
2018-03-25T01:31:36.933Z,4.00
2018-03-25T01:32:37.014Z,4.00
2018-03-25T01:33:36.966Z,4.00
2018-03-25T01:34:36.983Z,4.00
2018-03-25T01:35:36.999Z,4.00
2018-03-25T01:36:37.015Z,4.00
2018-03-25T01:37:37.032Z,4.00
2018-03-25T01:38:37.053Z,4.00
2018-03-25T01:39:37.063Z,4.00
2018-03-25T01:40:37.081Z,4.00
2018-03-25T01:41:37.097Z,4.00
2018-03-25T01:42:37.114Z,4.00
2018-03-25T01:43:37.129Z,4.00
2018-03-25T01:44:37.146Z,8.00
2018-03-25T01:45:37.162Z,8.00
2018-03-25T01:46:37.178Z,8.00
2018-03-25T01:47:37.193Z,8.00
2018-03-25T01:48:37.211Z,8.00
2018-03-25T01:49:37.226Z,8.00
2018-03-25T01:50:37.243Z,8.00
2018-03-25T01:51:37.259Z,8.00
2018-03-25T01:52:37.274Z,8.00
2018-03-25T01:53:37.291Z,8.00
2018-03-25T01:54:37.312Z,8.00
2018-03-25T01:55:37.321Z,8.00
2018-03-25T01:56:37.339Z,8.00
2018-03-25T01:57:37.355Z,8.00
2018-03-25T01:58:37.371Z,8.00
2018-03-25T01:59:37.387Z,8.00
2018-03-25T02:00:37.408Z,4.00
2018-03-25T02:01:37.419Z,8.00
2018-03-25T02:02:37.435Z,8.00
2018-03-25T02:03:37.451Z,8.00
2018-03-25T02:04:37.467Z,8.00
2018-03-25T02:05:37.484Z,8.00
2018-03-25T02:06:37.500Z,4.00
2018-03-25T02:07:37.515Z,4.00
2018-03-25T02:08:37.531Z,4.00
2018-03-25T02:09:37.550Z,4.00
2018-03-25T02:10:37.616Z,4.00
2018-03-25T02:11:37.580Z,8.00
2018-03-25T02:12:37.595Z,8.00
2018-03-25T02:13:37.613Z,4.00
2018-03-25T02:14:37.629Z,4.00
2018-03-25T02:15:37.643Z,8.00
2018-03-25T02:16:37.659Z,8.00
2018-03-25T02:17:37.677Z,4.00
2018-03-25T02:18:37.694Z,8.00
2018-03-25T02:19:37.707Z,8.00
2018-03-25T02:20:37.724Z,8.00
2018-03-25T02:21:37.740Z,4.00
2018-03-25T02:22:37.756Z,8.00
2018-03-25T02:23:37.771Z,8.00
2018-03-25T02:24:37.786Z,8.00
2018-03-25T02:25:37.803Z,8.00
2018-03-25T02:26:37.818Z,8.00
2018-03-25T02:27:37.834Z,8.00
2018-03-25T02:28:37.850Z,8.00
2018-03-25T02:29:37.865Z,8.00
2018-03-25T02:30:37.882Z,8.00
2018-03-25T02:31:37.897Z,8.00
2018-03-25T02:32:37.913Z,8.00
2018-03-25T02:33:37.930Z,8.00
2018-03-25T02:34:37.945Z,8.00
2018-03-25T02:35:37.963Z,8.00
2018-03-25T02:36:37.977Z,8.00
2018-03-25T02:37:37.992Z,8.00
2018-03-25T02:38:38.009Z,8.00
2018-03-25T02:39:38.023Z,4.00
2018-03-25T02:40:38.039Z,4.00
2018-03-25T02:41:38.057Z,4.00
2018-03-25T02:42:38.080Z,4.00
2018-03-25T02:43:38.089Z,4.00
2018-03-25T02:44:38.103Z,4.00
2018-03-25T02:45:38.118Z,4.00
2018-03-25T02:46:38.136Z,4.00
2018-03-25T02:47:38.150Z,4.00
2018-03-25T02:48:38.166Z,4.00
2018-03-25T02:49:38.183Z,4.00
2018-03-25T02:50:38.196Z,4.00
2018-03-25T02:51:38.213Z,4.00
2018-03-25T02:52:38.229Z,4.00
2018-03-25T02:53:38.243Z,4.00
2018-03-25T02:54:38.260Z,4.00
2018-03-25T02:55:38.275Z,4.00
2018-03-25T02:56:38.291Z,4.00
2018-03-25T02:57:38.308Z,4.00
2018-03-25T02:58:38.324Z,4.00
2018-03-25T02:59:38.338Z,4.00
2018-03-25T03:00:38.354Z,4.00
2018-03-25T03:01:38.368Z,4.00
2018-03-25T03:02:38.421Z,4.00
2018-03-25T03:03:38.400Z,4.00
2018-03-25T03:04:38.616Z,4.00
2018-03-25T03:05:38.432Z,4.00
2018-03-25T03:06:38.452Z,4.00
2018-03-25T03:07:38.463Z,4.00
2018-03-25T03:08:38.478Z,4.00
2018-03-25T03:09:38.495Z,4.00
2018-03-25T03:10:38.510Z,4.00
2018-03-25T03:11:38.526Z,4.00
2018-03-25T03:12:38.542Z,4.00
2018-03-25T03:13:38.561Z,4.00
2018-03-25T03:14:38.573Z,4.00
2018-03-25T03:15:38.590Z,4.00
2018-03-25T03:16:38.605Z,4.00
2018-03-25T03:17:38.620Z,4.00
2018-03-25T03:18:38.636Z,4.00
2018-03-25T03:19:38.651Z,4.00
2018-03-25T03:20:38.668Z,4.00
2018-03-25T03:21:38.706Z,4.00
2018-03-25T03:22:38.698Z,4.00
2018-03-25T03:23:38.712Z,4.00
2018-03-25T03:24:38.730Z,4.00
2018-03-25T03:25:38.746Z,4.00
2018-03-25T03:26:38.762Z,4.00
2018-03-25T03:27:38.776Z,4.00
2018-03-25T03:28:38.793Z,4.00
2018-03-25T03:29:38.808Z,4.00
2018-03-25T03:30:38.825Z,4.00
2018-03-25T03:31:38.841Z,4.00
2018-03-25T03:32:38.855Z,4.00
2018-03-25T03:33:38.870Z,4.00
2018-03-25T03:34:38.886Z,4.00
2018-03-25T03:35:38.903Z,4.00
2018-03-25T03:36:38.921Z,4.00
2018-03-25T03:37:38.935Z,4.00
2018-03-25T03:38:38.954Z,4.00
2018-03-25T03:39:38.963Z,4.00
2018-03-25T03:40:38.981Z,4.00
2018-03-25T03:41:38.995Z,4.00
2018-03-25T03:42:39.012Z,4.00
2018-03-25T03:43:39.026Z,4.00
2018-03-25T03:44:39.042Z,4.00
2018-03-25T03:45:39.058Z,4.00
2018-03-25T03:46:39.074Z,4.00
2018-03-25T03:47:39.092Z,4.00
2018-03-25T03:48:39.106Z,4.00
2018-03-25T03:49:39.120Z,4.00
2018-03-25T03:50:39.138Z,4.00
2018-03-25T03:51:39.152Z,4.00
2018-03-25T03:52:39.169Z,4.00
2018-03-25T03:53:39.183Z,4.00
2018-03-25T03:54:39.200Z,4.00
2018-03-25T03:55:39.214Z,4.00
2018-03-25T03:56:39.230Z,4.00
2018-03-25T03:57:39.249Z,4.00
2018-03-25T03:58:39.263Z,4.00
2018-03-25T03:59:39.277Z,4.00
2018-03-25T04:00:39.293Z,4.00
2018-03-25T04:01:39.313Z,4.00
2018-03-25T04:02:39.325Z,4.00
2018-03-25T04:03:39.344Z,4.00
2018-03-25T04:04:39.356Z,4.00
2018-03-25T04:05:39.371Z,4.00
2018-03-25T04:06:39.387Z,4.00
2018-03-25T04:07:39.402Z,4.00
2018-03-25T04:08:39.420Z,4.00
2018-03-25T04:09:39.435Z,4.00
2018-03-25T04:10:39.449Z,4.00
2018-03-25T04:11:39.464Z,4.00
2018-03-25T04:12:39.482Z,4.00
2018-03-25T04:13:39.496Z,4.00
2018-03-25T04:14:39.512Z,4.00
2018-03-25T04:15:39.528Z,4.00
2018-03-25T04:16:39.543Z,4.00
2018-03-25T04:17:39.559Z,4.00
2018-03-25T04:18:39.575Z,4.00
2018-03-25T04:19:39.590Z,4.00
2018-03-25T04:20:39.605Z,4.00
2018-03-25T04:21:39.620Z,4.00
2018-03-25T04:22:39.637Z,4.00
2018-03-25T04:23:39.652Z,4.00
2018-03-25T04:24:39.668Z,4.00
2018-03-25T04:25:39.688Z,4.00
2018-03-25T04:26:39.699Z,4.00
2018-03-25T04:27:39.714Z,4.00
2018-03-25T04:28:39.730Z,4.00
2018-03-25T04:29:39.746Z,4.00
2018-03-25T04:30:39.964Z,4.00
2018-03-25T04:31:39.778Z,4.00
2018-03-25T04:32:39.793Z,4.00
2018-03-25T04:33:39.809Z,4.00
2018-03-25T04:34:39.825Z,4.00
2018-03-25T04:35:39.840Z,4.00
2018-03-25T04:36:39.855Z,4.00
2018-03-25T04:37:39.872Z,4.00
2018-03-25T04:38:39.888Z,4.00
2018-03-25T04:39:39.902Z,4.00
2018-03-25T04:40:39.918Z,4.00
2018-03-25T04:41:39.936Z,4.00
2018-03-25T04:42:39.950Z,4.00
2018-03-25T04:43:39.966Z,4.00
2018-03-25T04:44:39.981Z,4.00
2018-03-25T04:45:39.997Z,4.00
2018-03-25T04:46:40.013Z,4.00
2018-03-25T04:47:40.038Z,4.00
2018-03-25T04:48:40.046Z,4.00
2018-03-25T04:49:40.059Z,4.00
2018-03-25T04:50:40.126Z,4.00
2018-03-25T04:51:40.090Z,4.00
2018-03-25T04:52:40.107Z,8.00
2018-03-25T04:53:40.124Z,8.00
2018-03-25T04:54:40.138Z,8.00
2018-03-25T04:55:40.153Z,4.00
2018-03-25T04:56:40.170Z,4.00
2018-03-25T04:57:40.186Z,8.00
2018-03-25T04:58:40.207Z,8.00
2018-03-25T04:59:40.215Z,8.00
2018-03-25T05:00:40.231Z,8.00
2018-03-25T05:01:40.347Z,8.00
2018-03-25T05:02:40.263Z,8.00
2018-03-25T05:03:40.277Z,12.00
2018-03-25T05:04:40.294Z,8.00
2018-03-25T05:05:40.309Z,12.00
2018-03-25T05:06:40.327Z,12.00
2018-03-25T05:07:40.339Z,16.00
2018-03-25T05:08:40.359Z,12.00
2018-03-25T05:09:40.371Z,16.00
2018-03-25T05:10:40.390Z,12.00
2018-03-25T05:11:40.401Z,16.00
2018-03-25T05:12:40.416Z,16.00
2018-03-25T05:13:40.434Z,16.00
2018-03-25T05:14:40.449Z,20.00
2018-03-25T05:15:40.464Z,24.00
2018-03-25T05:16:40.480Z,28.00
2018-03-25T05:17:40.497Z,28.00
2018-03-25T05:18:40.511Z,32.00
2018-03-25T05:19:40.527Z,36.00
2018-03-25T05:20:40.542Z,40.00
2018-03-25T05:21:40.558Z,44.00
2018-03-25T05:22:40.573Z,48.00
2018-03-25T05:23:40.588Z,52.00
2018-03-25T05:24:40.609Z,60.00
2018-03-25T05:25:40.621Z,64.00
2018-03-25T05:26:40.636Z,72.00
2018-03-25T05:27:40.651Z,76.00
2018-03-25T05:28:40.667Z,84.00
2018-03-25T05:29:40.686Z,92.00
2018-03-25T05:30:40.699Z,100.00
2018-03-25T05:31:40.713Z,112.00
2018-03-25T05:32:40.730Z,120.00
2018-03-25T05:33:40.745Z,128.00
2018-03-25T05:34:40.762Z,140.00
2018-03-25T05:35:40.775Z,152.00
2018-03-25T05:36:40.793Z,160.00
2018-03-25T05:37:40.809Z,172.00
2018-03-25T05:38:40.825Z,184.00
2018-03-25T05:39:40.839Z,196.00
2018-03-25T05:40:40.855Z,208.00
2018-03-25T05:41:40.872Z,224.00
2018-03-25T05:42:40.887Z,244.00
2018-03-25T05:43:40.902Z,252.00
2018-03-25T05:44:40.918Z,268.00
2018-03-25T05:45:40.934Z,280.00
2018-03-25T05:46:40.950Z,292.00
2018-03-25T05:47:40.965Z,304.00
2018-03-25T05:48:40.981Z,316.00
2018-03-25T05:49:40.997Z,328.00
2018-03-25T05:50:41.013Z,348.00
2018-03-25T05:51:41.028Z,368.00
2018-03-25T05:52:41.044Z,400.00
2018-03-25T05:53:41.059Z,424.00
2018-03-25T05:54:41.089Z,452.00
2018-03-25T05:55:41.090Z,472.00
2018-03-25T05:56:41.107Z,492.00
2018-03-25T05:57:41.122Z,504.00
2018-03-25T05:58:41.138Z,528.00
2018-03-25T05:59:41.153Z,552.00
2018-03-25T06:00:41.171Z,576.00
2018-03-25T06:01:41.186Z,596.00
2018-03-25T06:02:41.201Z,608.00
2018-03-25T06:03:41.216Z,608.00
2018-03-25T06:04:41.234Z,616.00
2018-03-25T06:05:41.251Z,624.00
2018-03-25T06:06:41.265Z,636.00
2018-03-25T06:07:41.283Z,660.00
2018-03-25T06:08:41.296Z,692.00
2018-03-25T06:09:41.312Z,732.00
2018-03-25T06:10:41.328Z,760.00
2018-03-25T06:11:41.343Z,792.00
2018-03-25T06:12:41.359Z,824.00
2018-03-25T06:13:41.375Z,852.00
2018-03-25T06:14:41.392Z,880.00
2018-03-25T06:15:41.407Z,900.00
2018-03-25T06:16:41.423Z,920.00
2018-03-25T06:17:41.440Z,940.00
2018-03-25T06:18:41.455Z,968.00
2018-03-25T06:19:41.471Z,988.00
2018-03-25T06:20:41.487Z,1008.00
2018-03-25T06:21:41.503Z,1024.00
2018-03-25T06:22:41.519Z,1028.00
2018-03-25T06:23:41.534Z,1036.00
2018-03-25T06:24:41.551Z,1036.00
2018-03-25T06:25:41.617Z,1044.00
2018-03-25T06:26:41.587Z,1052.00
2018-03-25T06:27:41.597Z,1076.00
2018-03-25T06:28:41.614Z,1120.00
2018-03-25T06:29:41.630Z,1164.00
2018-03-25T06:30:41.647Z,1196.00
2018-03-25T06:31:41.662Z,1216.00
2018-03-25T06:32:41.679Z,1220.00
2018-03-25T06:33:41.694Z,1220.00
2018-03-25T06:34:41.710Z,1232.00
2018-03-25T06:35:41.726Z,1248.00
2018-03-25T06:36:41.743Z,1276.00
2018-03-25T06:37:41.762Z,1300.00
2018-03-25T06:38:41.774Z,1328.00
2018-03-25T06:39:41.791Z,1340.00
2018-03-25T06:40:41.806Z,1352.00
2018-03-25T06:41:41.822Z,1360.00
2018-03-25T06:42:41.839Z,1376.00
2018-03-25T06:43:41.854Z,1396.00
2018-03-25T06:44:41.868Z,1424.00
2018-03-25T06:45:41.886Z,1452.00
2018-03-25T06:46:41.904Z,1476.00
2018-03-25T06:47:41.918Z,1512.00
2018-03-25T06:48:41.933Z,1548.00
2018-03-25T06:49:41.951Z,1588.00
2018-03-25T06:50:41.967Z,1620.00
2018-03-25T06:51:41.982Z,1640.00
2018-03-25T06:52:41.999Z,1664.00
2018-03-25T06:53:42.016Z,1696.00
2018-03-25T06:54:42.033Z,1740.00
2018-03-25T06:55:42.048Z,1804.00
2018-03-25T06:56:42.067Z,1876.00
2018-03-25T06:57:42.083Z,1956.00
2018-03-25T06:58:42.097Z,2028.00
2018-03-25T06:59:42.116Z,2092.00
2018-03-25T07:00:42.129Z,2144.00
2018-03-25T07:01:42.145Z,2196.00
2018-03-25T07:02:42.162Z,2248.00
2018-03-25T07:03:42.181Z,2284.00
2018-03-25T07:04:42.195Z,2316.00
2018-03-25T07:05:42.211Z,2332.00
2018-03-25T07:06:42.232Z,2348.00
2018-03-25T07:07:42.244Z,2356.00
2018-03-25T07:08:42.286Z,2360.00
2018-03-25T07:09:42.280Z,2380.00
2018-03-25T07:10:42.299Z,2420.00
2018-03-25T07:11:42.311Z,2464.00
2018-03-25T07:12:42.329Z,2504.00
2018-03-25T07:13:42.344Z,2532.00
2018-03-25T07:14:42.360Z,2564.00
2018-03-25T07:15:42.376Z,2600.00
2018-03-25T07:16:42.393Z,2644.00
2018-03-25T07:17:42.409Z,2692.00
2018-03-25T07:18:42.427Z,2744.00
2018-03-25T07:19:42.442Z,2804.00
2018-03-25T07:20:42.458Z,2848.00
2018-03-25T07:21:42.475Z,2872.00
2018-03-25T07:22:42.492Z,2896.00
2018-03-25T07:23:42.508Z,2932.00
2018-03-25T07:24:42.525Z,2976.00
2018-03-25T07:25:42.542Z,3024.00
2018-03-25T07:26:42.559Z,3060.00
2018-03-25T07:27:42.579Z,3104.00
2018-03-25T07:28:42.591Z,3156.00
2018-03-25T07:29:42.612Z,3196.00
2018-03-25T07:30:42.627Z,3224.00
2018-03-25T07:31:42.644Z,3228.00
2018-03-25T07:32:42.659Z,3236.00
2018-03-25T07:33:42.676Z,3272.00
2018-03-25T07:34:42.693Z,3340.00
2018-03-25T07:35:42.709Z,3424.00
2018-03-25T07:36:42.727Z,3504.00
2018-03-25T07:37:42.787Z,3548.00
2018-03-25T07:38:42.761Z,3584.00
2018-03-25T07:39:42.777Z,3628.00
2018-03-25T07:40:42.794Z,3676.00
2018-03-25T07:41:42.812Z,3716.00
2018-03-25T07:42:42.828Z,3736.00
2018-03-25T07:43:42.845Z,3760.00
2018-03-25T07:44:42.863Z,3776.00
2018-03-25T07:45:42.879Z,3768.00
2018-03-25T07:46:42.897Z,3756.00
2018-03-25T07:47:42.913Z,3748.00
2018-03-25T07:48:42.929Z,3748.00
2018-03-25T07:49:42.947Z,3768.00
2018-03-25T07:50:42.965Z,3808.00
2018-03-25T07:51:42.980Z,3860.00
2018-03-25T07:52:42.998Z,3920.00
2018-03-25T07:53:43.016Z,3972.00
2018-03-25T07:54:43.032Z,3996.00
2018-03-25T07:55:43.048Z,4004.00
2018-03-25T07:56:43.066Z,3984.00
2018-03-25T07:57:43.084Z,3944.00
2018-03-25T07:58:43.101Z,3940.00
2018-03-25T07:59:43.117Z,3964.00
2018-03-25T08:00:43.133Z,3988.00
2018-03-25T08:01:43.152Z,4008.00
2018-03-25T08:02:43.172Z,4020.00
2018-03-25T08:03:43.183Z,4036.00
2018-03-25T08:04:43.202Z,4068.00
2018-03-25T08:05:43.219Z,4108.00
2018-03-25T08:06:43.236Z,4132.00
2018-03-25T08:07:43.253Z,4144.00
2018-03-25T08:08:43.270Z,4144.00
2018-03-25T08:09:43.288Z,4184.00
2018-03-25T08:10:43.305Z,4228.00
2018-03-25T08:11:43.321Z,4288.00
2018-03-25T08:12:43.339Z,4336.00
2018-03-25T08:13:43.356Z,4376.00
2018-03-25T08:14:43.379Z,4400.00
2018-03-25T08:15:43.391Z,4392.00
2018-03-25T08:16:43.407Z,4372.00
2018-03-25T08:17:43.427Z,4356.00
2018-03-25T08:18:43.443Z,4356.00
2018-03-25T08:19:43.458Z,4372.00
2018-03-25T08:20:43.477Z,4404.00
2018-03-25T08:21:43.494Z,4432.00
2018-03-25T08:22:43.512Z,4460.00
2018-03-25T08:23:43.529Z,4496.00
2018-03-25T08:24:43.546Z,4516.00
2018-03-25T08:25:43.564Z,4520.00
2018-03-25T08:26:43.581Z,4512.00
2018-03-25T08:27:43.598Z,4508.00
2018-03-25T08:28:43.619Z,4516.00
2018-03-25T08:29:43.634Z,4544.00
2018-03-25T08:30:43.653Z,4588.00
2018-03-25T08:31:43.669Z,4640.00
2018-03-25T08:32:43.689Z,4700.00
2018-03-25T08:33:43.704Z,4748.00
2018-03-25T08:34:43.723Z,4792.00
2018-03-25T08:35:43.741Z,4836.00
2018-03-25T08:36:43.758Z,4880.00
2018-03-25T08:37:43.781Z,4924.00
2018-03-25T08:38:43.794Z,4964.00
2018-03-25T08:39:43.811Z,5008.00
2018-03-25T08:40:43.829Z,5016.00
2018-03-25T08:41:43.848Z,5072.00
2018-03-25T08:42:43.866Z,5128.00
2018-03-25T08:43:43.882Z,5180.00
2018-03-25T08:44:43.903Z,5232.00
2018-03-25T08:45:43.919Z,5272.00
2018-03-25T08:46:43.942Z,5280.00
2018-03-25T08:47:43.956Z,5292.00
2018-03-25T08:48:43.974Z,5308.00
2018-03-25T08:49:43.993Z,5328.00
2018-03-25T08:50:44.010Z,5352.00
2018-03-25T08:51:44.027Z,5352.00
2018-03-25T08:52:44.045Z,5372.00
2018-03-25T08:53:44.065Z,5368.00
2018-03-25T08:54:44.083Z,5372.00
2018-03-25T08:55:44.101Z,5412.00
2018-03-25T08:56:44.119Z,5456.00
2018-03-25T08:57:44.140Z,5500.00
2018-03-25T08:58:44.158Z,5548.00
2018-03-25T08:59:44.175Z,5552.00
2018-03-25T09:00:44.191Z,5572.00
2018-03-25T09:01:44.236Z,5604.00
2018-03-25T09:02:44.234Z,5664.00
2018-03-25T09:03:44.245Z,5744.00
2018-03-25T09:04:44.270Z,5820.00
2018-03-25T09:05:44.283Z,5884.00
2018-03-25T09:06:44.300Z,5920.00
2018-03-25T09:07:44.318Z,5964.00
2018-03-25T09:08:44.337Z,5976.00
2018-03-25T09:09:44.355Z,5980.00
2018-03-25T09:10:44.374Z,5996.00
2018-03-25T09:11:44.390Z,6004.00
2018-03-25T09:12:44.411Z,6052.00
2018-03-25T09:13:44.431Z,6084.00
2018-03-25T09:14:44.446Z,6128.00
2018-03-25T09:15:44.464Z,6176.00
2018-03-25T09:16:44.483Z,6232.00
2018-03-25T09:17:44.502Z,6284.00
2018-03-25T09:18:44.520Z,6348.00
2018-03-25T09:19:44.582Z,6404.00
2018-03-25T09:20:44.556Z,6444.00
2018-03-25T09:21:44.587Z,6456.00
2018-03-25T09:22:44.595Z,6460.00
2018-03-25T09:23:44.612Z,6452.00
2018-03-25T09:24:44.631Z,6480.00
2018-03-25T09:25:44.651Z,6496.00
2018-03-25T09:26:44.669Z,6500.00
2018-03-25T09:27:44.687Z,6484.00
2018-03-25T09:28:44.708Z,6488.00
2018-03-25T09:29:44.724Z,6524.00
2018-03-25T09:30:44.742Z,6544.00
2018-03-25T09:31:44.762Z,6556.00
2018-03-25T09:32:44.781Z,6588.00
2018-03-25T09:33:44.800Z,6656.00
2018-03-25T09:34:44.819Z,6652.00
2018-03-25T09:35:44.837Z,6672.00
2018-03-25T09:36:44.856Z,6712.00
2018-03-25T09:37:44.875Z,6708.00
2018-03-25T09:38:44.894Z,6712.00
2018-03-25T09:39:44.912Z,6712.00
2018-03-25T09:40:44.931Z,6692.00
2018-03-25T09:41:44.949Z,6664.00
2018-03-25T09:42:44.969Z,6640.00
2018-03-25T09:43:44.987Z,6608.00
2018-03-25T09:44:45.006Z,6588.00
2018-03-25T09:45:45.028Z,6600.00
2018-03-25T09:46:45.044Z,6604.00
2018-03-25T09:47:45.062Z,6628.00
2018-03-25T09:48:45.081Z,6620.00
2018-03-25T09:49:45.099Z,6616.00
2018-03-25T09:50:45.120Z,6632.00
2018-03-25T09:51:45.138Z,6636.00
2018-03-25T09:52:45.162Z,6672.00
2018-03-25T09:53:45.176Z,6704.00
2018-03-25T09:54:45.196Z,6752.00
2018-03-25T09:55:45.213Z,6784.00
2018-03-25T09:56:45.232Z,6852.00
2018-03-25T09:57:45.260Z,6912.00
2018-03-25T09:58:45.299Z,6936.00
2018-03-25T09:59:45.289Z,6940.00
2018-03-25T10:00:45.360Z,6920.00
2018-03-25T10:01:45.328Z,6908.00
2018-03-25T10:02:45.347Z,6924.00
2018-03-25T10:03:45.368Z,6932.00
2018-03-25T10:04:45.423Z,6956.00
2018-03-25T10:05:45.406Z,6984.00
2018-03-25T10:06:45.424Z,7012.00
2018-03-25T10:07:45.441Z,7032.00
2018-03-25T10:08:45.460Z,7096.00
2018-03-25T10:09:45.480Z,7112.00
2018-03-25T10:10:45.500Z,7112.00
2018-03-25T10:11:45.518Z,7136.00
2018-03-25T10:12:45.537Z,7148.00
2018-03-25T10:13:45.556Z,7180.00
2018-03-25T10:14:45.582Z,7204.00
2018-03-25T10:15:45.594Z,7220.00
2018-03-25T10:16:45.672Z,7224.00
2018-03-25T10:17:45.633Z,7216.00
2018-03-25T10:18:45.668Z,7220.00
2018-03-25T10:19:45.671Z,7240.00
2018-03-25T10:20:45.691Z,7336.00
2018-03-25T10:21:45.710Z,7308.00
2018-03-25T10:22:45.731Z,7284.00
2018-03-25T10:23:45.749Z,7872.00
2018-03-25T10:24:45.768Z,7380.00
2018-03-25T10:25:45.795Z,7464.00
2018-03-25T10:26:45.808Z,7548.00
2018-03-25T10:27:45.825Z,7584.00
2018-03-25T10:28:45.845Z,7520.00
2018-03-25T10:29:45.865Z,7432.00
2018-03-25T10:30:45.885Z,7408.00
2018-03-25T10:31:45.903Z,7424.00
2018-03-25T10:32:45.924Z,7580.00
2018-03-25T10:33:45.943Z,7696.00
2018-03-25T10:34:45.963Z,7812.00
2018-03-25T10:35:45.981Z,7920.00
2018-03-25T10:36:46.003Z,7936.00
2018-03-25T10:37:46.053Z,7940.00
2018-03-25T10:38:46.044Z,8008.00
2018-03-25T10:39:46.061Z,8152.00
2018-03-25T10:40:46.082Z,8432.00
2018-03-25T10:41:46.099Z,8476.00
2018-03-25T10:42:46.121Z,8716.00
2018-03-25T10:43:46.137Z,8320.00
2018-03-25T10:44:46.158Z,8116.00
2018-03-25T10:45:46.177Z,7916.00
2018-03-25T10:46:46.197Z,7920.00
2018-03-25T10:47:46.220Z,7792.00
2018-03-25T10:48:46.236Z,7480.00
2018-03-25T10:49:46.256Z,7488.00
2018-03-25T10:50:46.281Z,7468.00
2018-03-25T10:51:46.295Z,7512.00
2018-03-25T10:52:46.314Z,7496.00
2018-03-25T10:53:46.334Z,7476.00
2018-03-25T10:54:46.354Z,7492.00
2018-03-25T10:55:46.372Z,7560.00
2018-03-25T10:56:46.392Z,7460.00
2018-03-25T10:57:46.411Z,7412.00
2018-03-25T10:58:46.632Z,7224.00
2018-03-25T10:59:46.451Z,7160.00
2018-03-25T11:00:46.471Z,7404.00
2018-03-25T11:01:46.496Z,7556.00
2018-03-25T11:02:46.510Z,7740.00
2018-03-25T11:03:46.529Z,7884.00
2018-03-25T11:04:46.549Z,7884.00
2018-03-25T11:05:46.569Z,7672.00
2018-03-25T11:06:46.590Z,7524.00
2018-03-25T11:07:46.608Z,7412.00
2018-03-25T11:08:46.635Z,7356.00
2018-03-25T11:09:46.649Z,7408.00
2018-03-25T11:10:46.670Z,7680.00
2018-03-25T11:11:46.689Z,7540.00
2018-03-25T11:12:46.709Z,7608.00
2018-03-25T11:13:46.730Z,7992.00
2018-03-25T11:14:46.750Z,7672.00
2018-03-25T11:15:46.768Z,7632.00
2018-03-25T11:16:46.789Z,7140.00
2018-03-25T11:17:46.812Z,7436.00
2018-03-25T11:18:46.831Z,7100.00
2018-03-25T11:19:46.850Z,6852.00
2018-03-25T11:20:46.871Z,6056.00
2018-03-25T11:21:46.892Z,5928.00
2018-03-25T11:22:46.912Z,5580.00
2018-03-25T11:23:46.931Z,5728.00
2018-03-25T11:24:46.952Z,5436.00
2018-03-25T11:25:46.973Z,5456.00
2018-03-25T11:26:46.992Z,6060.00
2018-03-25T11:27:47.045Z,5764.00
2018-03-25T11:28:47.033Z,5980.00
2018-03-25T11:29:47.064Z,6156.00
2018-03-25T11:30:47.073Z,5732.00
2018-03-25T11:31:47.093Z,6020.00
2018-03-25T11:32:47.122Z,5996.00
2018-03-25T11:33:47.134Z,6048.00
2018-03-25T11:34:47.156Z,5956.00
2018-03-25T11:35:47.178Z,6160.00
2018-03-25T11:36:47.194Z,6184.00
2018-03-25T11:37:47.215Z,6064.00
2018-03-25T11:38:47.235Z,6156.00
2018-03-25T11:39:47.266Z,6084.00
2018-03-25T11:40:47.275Z,6144.00
2018-03-25T11:41:47.294Z,6092.00
2018-03-25T11:42:47.314Z,6048.00
2018-03-25T11:43:47.337Z,6080.00
2018-03-25T11:44:47.355Z,6072.00
2018-03-25T11:45:47.375Z,5900.00
2018-03-25T11:46:47.395Z,5880.00
2018-03-25T11:47:47.414Z,5888.00
2018-03-25T11:48:47.434Z,5852.00
2018-03-25T11:49:47.455Z,5864.00
2018-03-25T11:50:47.477Z,5864.00
2018-03-25T11:51:47.495Z,5784.00
2018-03-25T11:52:47.614Z,5772.00
2018-03-25T11:53:47.535Z,5760.00
2018-03-25T11:54:47.555Z,5724.00
2018-03-25T11:55:47.575Z,5668.00
2018-03-25T11:56:47.603Z,5644.00
2018-03-25T11:57:47.617Z,5700.00
2018-03-25T11:58:47.637Z,5752.00
2018-03-25T11:59:47.656Z,5716.00
2018-03-25T12:00:47.676Z,5696.00
2018-03-25T12:01:47.696Z,5796.00
2018-03-25T12:02:47.716Z,5824.00
2018-03-25T12:03:47.737Z,5788.00
2018-03-25T12:04:47.757Z,5820.00
2018-03-25T12:05:47.777Z,5868.00
2018-03-25T12:06:47.800Z,5988.00
2018-03-25T12:07:47.818Z,6080.00
2018-03-25T12:08:47.844Z,6100.00
2018-03-25T12:09:47.859Z,6224.00
2018-03-25T12:10:47.879Z,6324.00
2018-03-25T12:11:47.899Z,6416.00
2018-03-25T12:12:47.919Z,6484.00
2018-03-25T12:13:47.941Z,6572.00
2018-03-25T12:14:47.960Z,6632.00
2018-03-25T12:15:47.980Z,6616.00
2018-03-25T12:16:48.000Z,6628.00
2018-03-25T12:17:48.021Z,6532.00
2018-03-25T12:18:48.042Z,6396.00
2018-03-25T12:19:48.061Z,6292.00
2018-03-25T12:20:48.083Z,6428.00
2018-03-25T12:21:48.103Z,6528.00
2018-03-25T12:22:48.122Z,6700.00
2018-03-25T12:23:48.143Z,6464.00
2018-03-25T12:24:48.161Z,5640.00
2018-03-25T12:25:48.182Z,6084.00
2018-03-25T12:26:48.204Z,6044.00
2018-03-25T12:27:48.225Z,6268.00
2018-03-25T12:28:48.243Z,6472.00
2018-03-25T12:29:48.266Z,6684.00
2018-03-25T12:30:48.286Z,6984.00
2018-03-25T12:31:48.305Z,7360.00
2018-03-25T12:32:48.326Z,8016.00
2018-03-25T12:33:48.347Z,8200.00
2018-03-25T12:34:48.367Z,8520.00
2018-03-25T12:35:48.387Z,8696.00
2018-03-25T12:36:48.408Z,8244.00